createdAt,value
2019-03-05T00:05:29.254Z,4.47
2019-03-05T00:15:33.448Z,3.10
2019-03-05T00:25:37.335Z,4.37
2019-03-05T00:36:10.620Z,4.63
2019-03-05T00:46:37.966Z,5.10
2019-03-05T00:57:06.955Z,4.33
2019-03-05T01:07:10.807Z,4.27
2019-03-05T01:17:14.669Z,4.00
2019-03-05T01:27:19.098Z,4.20
2019-03-05T01:37:23.291Z,3.43
2019-03-05T01:47:27.658Z,4.53
2019-03-05T01:57:31.712Z,4.73
2019-03-05T02:07:35.775Z,3.30
2019-03-05T02:17:39.546Z,3.40
2019-03-05T02:27:55.060Z,2.93
2019-03-05T02:38:33.411Z,1.93
2019-03-05T02:49:02.505Z,2.20
2019-03-05T02:59:05.588Z,3.00
2019-03-05T03:10:09.537Z,2.57
2019-03-05T03:20:15.185Z,3.03
2019-03-05T03:30:24.231Z,2.50
2019-03-05T03:40:28.291Z,2.20
2019-03-05T03:50:32.096Z,2.90
2019-03-05T04:00:35.879Z,2.60
2019-03-05T04:10:39.675Z,2.90
2019-03-05T04:20:47.880Z,2.20
2019-03-05T04:30:52.184Z,2.33
2019-03-05T04:40:56.496Z,2.10
2019-03-05T04:51:12.700Z,1.97
2019-03-05T05:01:17.279Z,2.10
2019-03-05T05:11:21.567Z,2.00
2019-03-05T05:21:25.747Z,2.10
2019-03-05T05:31:30.050Z,2.60
2019-03-05T05:41:34.118Z,2.00
2019-03-05T05:51:38.158Z,2.43
2019-03-05T06:01:42.491Z,2.70
2019-03-05T06:11:46.268Z,2.47
2019-03-05T06:21:50.055Z,2.42
2019-03-05T06:31:53.843Z,2.23
2019-03-05T06:41:58.136Z,2.27
2019-03-05T06:52:01.990Z,2.10
2019-03-05T07:02:06.183Z,1.80
2019-03-05T07:12:56.929Z,2.00
2019-03-05T07:23:16.723Z,1.52
2019-03-05T07:33:20.778Z,1.50
2019-03-05T07:43:35.984Z,2.17
2019-03-05T07:53:30.326Z,2.60
2019-03-05T08:03:34.119Z,2.63
2019-03-05T08:14:05.356Z,2.30
2019-03-05T08:24:09.143Z,1.90
2019-03-05T08:34:12.951Z,1.90
2019-03-05T08:44:17.280Z,2.70
2019-03-05T08:54:40.035Z,2.27
2019-03-05T09:04:44.300Z,2.20
2019-03-05T09:14:48.348Z,2.00
2019-03-05T09:24:52.900Z,2.13
2019-03-05T09:34:57.463Z,1.37
2019-03-05T09:45:01.505Z,1.73
2019-03-05T09:55:06.404Z,1.80
2019-03-05T10:05:11.177Z,1.67
2019-03-05T10:15:17.842Z,1.90
2019-03-05T10:25:23.425Z,1.60
2019-03-05T10:35:27.483Z,2.30
2019-03-05T10:45:32.040Z,2.70
2019-03-05T10:55:36.154Z,1.40
2019-03-05T11:05:42.547Z,1.60
2019-03-05T11:15:49.248Z,1.53
2019-03-05T11:25:53.359Z,1.60
2019-03-05T11:35:57.467Z,1.17
2019-03-05T11:46:01.578Z,1.10
2019-03-05T11:56:05.780Z,1.07
2019-03-05T12:06:09.830Z,1.00
2019-03-05T12:16:15.390Z,0.83
2019-03-05T12:26:19.427Z,1.03
2019-03-05T12:36:23.623Z,0.67
2019-03-05T12:46:27.982Z,0.60
2019-03-05T12:56:32.291Z,0.60
2019-03-05T13:06:36.655Z,0.63
2019-03-05T13:16:40.762Z,0.47
2019-03-05T13:26:46.358Z,0.60
2019-03-05T13:36:51.614Z,0.70
2019-03-05T13:47:08.839Z,0.67
2019-03-05T13:57:56.070Z,0.60
2019-03-05T14:08:34.116Z,0.67
2019-03-05T14:18:37.989Z,0.70
2019-03-05T14:28:42.424Z,0.70
2019-03-05T14:38:46.375Z,1.00
2019-03-05T14:48:50.415Z,0.90
2019-03-05T14:58:54.693Z,0.80
2019-03-05T15:08:59.251Z,1.20
2019-03-05T15:19:03.169Z,0.80
2019-03-05T15:29:07.576Z,1.07
2019-03-05T15:39:11.996Z,0.97
2019-03-05T15:49:16.100Z,0.60
2019-03-05T15:59:20.188Z,0.70
2019-03-05T16:09:24.296Z,0.73
2019-03-05T16:19:28.627Z,0.50
2019-03-05T16:29:32.680Z,0.80
2019-03-05T16:39:46.417Z,0.60
2019-03-05T16:50:08.343Z,0.60
2019-03-05T17:00:35.182Z,0.57
2019-03-05T17:11:04.849Z,0.37
2019-03-05T17:21:09.018Z,0.40
2019-03-05T17:31:13.171Z,0.47
2019-03-05T17:41:17.322Z,0.40
2019-03-05T17:51:26.255Z,0.20
2019-03-05T18:01:30.215Z,0.47
2019-03-05T18:11:34.713Z,0.50
2019-03-05T18:21:58.256Z,0.30
2019-03-05T18:32:02.032Z,0.47
2019-03-05T18:42:06.191Z,0.30
2019-03-05T18:52:10.247Z,0.70
2019-03-05T19:02:14.552Z,0.40
2019-03-05T19:12:18.619Z,0.70
2019-03-05T19:22:22.944Z,0.70
2019-03-05T19:32:27.167Z,0.50
2019-03-05T19:42:31.762Z,0.90
2019-03-05T19:52:36.139Z,1.23
2019-03-05T20:02:40.611Z,0.90
2019-03-05T20:12:44.656Z,0.70
2019-03-05T20:22:48.923Z,1.00
2019-03-05T20:32:53.460Z,1.17
2019-03-05T20:42:57.543Z,0.90
2019-03-05T20:53:02.146Z,0.80
2019-03-05T21:03:06.766Z,0.70
2019-03-05T21:13:11.149Z,1.00
2019-03-05T21:23:15.494Z,0.87
2019-03-05T21:33:19.894Z,0.90
2019-03-05T21:43:23.859Z,0.80
2019-03-05T21:53:27.903Z,0.93
2019-03-05T22:03:33.535Z,1.40
2019-03-05T22:13:45.386Z,1.40
2019-03-05T22:23:49.822Z,0.83
2019-03-05T22:33:54.247Z,0.97
2019-03-05T22:43:58.595Z,0.70
2019-03-05T22:54:02.648Z,1.00
2019-03-05T23:04:07.186Z,1.30
2019-03-05T23:14:11.584Z,1.67
2019-03-05T23:24:15.576Z,1.63
2019-03-05T23:34:19.435Z,1.60
2019-03-05T23:44:23.818Z,2.40
2019-03-05T23:54:28.023Z,2.37
